createdAt,value
2023-05-22T00:00:27.330Z,15.26
2023-05-22T00:02:58.674Z,15.23
2023-05-22T00:05:30.500Z,15.20
2023-05-22T00:08:01.634Z,15.18
2023-05-22T00:10:32.768Z,15.15
2023-05-22T00:13:03.876Z,15.13
2023-05-22T00:15:36.569Z,15.10
2023-05-22T00:18:10.281Z,15.07
2023-05-22T00:20:52.048Z,15.04
2023-05-22T00:23:23.921Z,15.01
2023-05-22T00:25:55.344Z,14.98
2023-05-22T00:28:26.599Z,14.96
2023-05-22T00:30:58.052Z,14.94
2023-05-22T00:33:29.445Z,14.92
2023-05-22T00:36:00.616Z,14.92
2023-05-22T00:38:33.553Z,14.89
2023-05-22T00:41:07.013Z,14.86
2023-05-22T00:43:40.225Z,14.83
2023-05-22T00:46:12.740Z,14.80
2023-05-22T00:48:44.162Z,14.78
2023-05-22T00:51:16.188Z,14.76
2023-05-22T00:53:49.251Z,14.74
2023-05-22T00:56:22.028Z,14.72
2023-05-22T00:58:53.309Z,14.69
2023-05-22T01:01:26.557Z,14.67
2023-05-22T01:03:57.901Z,14.65
2023-05-22T01:06:32.418Z,14.62
2023-05-22T01:09:04.883Z,14.60
2023-05-22T01:11:45.518Z,14.58
2023-05-22T01:14:24.669Z,14.56
2023-05-22T01:17:02.550Z,14.54
2023-05-22T01:20:01.766Z,14.53
2023-05-22T01:22:58.626Z,14.50
2023-05-22T01:26:05.869Z,14.48
2023-05-22T01:28:53.549Z,14.43
2023-05-22T01:31:28.637Z,14.39
2023-05-22T01:34:02.381Z,14.35
2023-05-22T01:36:36.547Z,14.31
2023-05-22T01:39:09.208Z,14.26
2023-05-22T01:41:41.841Z,14.23
2023-05-22T01:44:16.088Z,14.19
2023-05-22T01:46:47.126Z,14.14
2023-05-22T01:49:19.729Z,14.12
2023-05-22T01:51:58.298Z,14.08
2023-05-22T01:54:39.340Z,14.03
2023-05-22T01:57:22.177Z,13.99
2023-05-22T02:00:02.536Z,13.95
2023-05-22T02:02:37.083Z,13.90
2023-05-22T02:05:11.706Z,13.85
2023-05-22T02:07:45.464Z,13.81
2023-05-22T02:10:18.070Z,13.76
2023-05-22T02:12:49.664Z,13.72
2023-05-22T02:15:22.106Z,13.68
2023-05-22T02:17:54.039Z,13.65
2023-05-22T02:20:25.436Z,13.62
2023-05-22T02:22:56.580Z,13.59
2023-05-22T02:25:28.192Z,13.57
2023-05-22T02:27:59.377Z,13.55
2023-05-22T02:30:30.588Z,13.53
2023-05-22T02:33:05.776Z,13.51
2023-05-22T02:35:36.977Z,13.49
2023-05-22T02:38:08.395Z,13.46
2023-05-22T02:40:40.005Z,13.44
2023-05-22T02:43:11.433Z,13.43
2023-05-22T02:45:42.548Z,13.42
2023-05-22T02:48:13.677Z,13.41
2023-05-22T02:50:45.151Z,13.39
2023-05-22T02:53:17.414Z,13.39
2023-05-22T02:55:48.885Z,13.37
2023-05-22T02:58:23.373Z,13.36
2023-05-22T03:00:56.332Z,13.36
2023-05-22T03:03:28.144Z,13.35
2023-05-22T03:05:59.481Z,13.35
2023-05-22T03:08:31.821Z,13.35
2023-05-22T03:11:03.759Z,13.36
2023-05-22T03:13:34.800Z,13.36
2023-05-22T03:16:06.399Z,13.36
2023-05-22T03:18:38.101Z,13.37
2023-05-22T03:21:09.297Z,13.37
2023-05-22T03:23:40.572Z,13.39
2023-05-22T03:26:11.753Z,13.40
2023-05-22T03:28:43.904Z,13.42
2023-05-22T03:31:15.512Z,13.47
2023-05-22T03:34:00.417Z,13.52
2023-05-22T03:36:34.252Z,13.56
2023-05-22T03:39:05.657Z,13.62
2023-05-22T03:41:40.008Z,13.70
2023-05-22T03:44:11.635Z,13.78
2023-05-22T03:46:43.172Z,13.89
2023-05-22T03:49:14.307Z,14.02
2023-05-22T03:51:45.382Z,14.18
2023-05-22T03:54:16.662Z,14.36
2023-05-22T03:56:48.052Z,14.54
2023-05-22T03:59:19.277Z,14.72
2023-05-22T04:01:51.087Z,14.93
2023-05-22T04:04:22.154Z,15.14
2023-05-22T04:06:58.345Z,15.39
2023-05-22T04:09:33.075Z,15.62
2023-05-22T04:12:04.317Z,15.87
2023-05-22T04:14:35.438Z,16.13
2023-05-22T04:17:11.738Z,16.47
2023-05-22T04:19:42.915Z,17.00
2023-05-22T04:22:13.950Z,17.69
2023-05-22T04:24:49.352Z,18.46
2023-05-22T04:27:22.794Z,19.28
2023-05-22T04:29:54.077Z,20.08
2023-05-22T04:32:26.118Z,20.88
2023-05-22T04:35:00.810Z,21.66
2023-05-22T04:37:32.876Z,22.41
2023-05-22T04:40:07.862Z,23.14
2023-05-22T04:42:39.700Z,23.78
2023-05-22T04:45:14.030Z,24.34
2023-05-22T04:47:45.157Z,24.79
2023-05-22T04:50:17.709Z,25.23
2023-05-22T04:52:49.016Z,25.64
2023-05-22T04:55:20.604Z,26.09
2023-05-22T04:57:52.920Z,26.59
2023-05-22T05:00:29.013Z,27.03
2023-05-22T05:03:01.590Z,27.48
2023-05-22T05:05:32.881Z,27.93
2023-05-22T05:08:04.340Z,28.32
2023-05-22T05:10:38.726Z,28.70
2023-05-22T05:13:10.470Z,29.01
2023-05-22T05:15:43.588Z,29.19
2023-05-22T05:18:14.662Z,29.30
2023-05-22T05:20:47.505Z,29.45
2023-05-22T05:23:21.268Z,29.63
2023-05-22T05:25:52.775Z,29.73
2023-05-22T05:28:24.504Z,29.85
2023-05-22T05:30:57.836Z,30.10
2023-05-22T05:33:38.103Z,30.43
2023-05-22T05:36:25.516Z,30.83
2023-05-22T05:38:59.284Z,31.19
2023-05-22T05:41:30.809Z,31.41
2023-05-22T05:44:07.884Z,31.49
2023-05-22T05:46:39.081Z,31.57
2023-05-22T05:49:13.244Z,31.71
2023-05-22T05:51:45.688Z,31.83
2023-05-22T05:54:17.189Z,31.61
2023-05-22T05:56:49.642Z,31.43
2023-05-22T05:59:23.297Z,31.61
2023-05-22T06:02:13.041Z,32.05
2023-05-22T06:04:48.567Z,32.50
2023-05-22T06:07:21.591Z,32.98
2023-05-22T06:09:56.085Z,33.43
2023-05-22T06:12:40.849Z,33.66
2023-05-22T06:15:13.348Z,33.97
2023-05-22T06:17:44.912Z,34.33
2023-05-22T06:20:17.459Z,34.70
2023-05-22T06:22:48.645Z,35.01
2023-05-22T06:25:21.591Z,35.20
2023-05-22T06:27:53.542Z,35.35
2023-05-22T06:30:39.011Z,35.61
2023-05-22T06:33:15.003Z,35.87
2023-05-22T06:35:45.470Z,36.16
2023-05-22T06:38:16.646Z,36.38
2023-05-22T06:40:47.969Z,36.52
2023-05-22T06:43:30.238Z,36.62
2023-05-22T06:46:19.752Z,36.56
2023-05-22T06:49:08.527Z,36.53
2023-05-22T06:51:47.263Z,36.42
2023-05-22T06:54:45.229Z,36.11
2023-05-22T06:57:17.844Z,35.84
2023-05-22T07:03:02.188Z,35.17
2023-05-22T07:05:39.747Z,34.91
2023-05-22T07:08:10.890Z,34.60
2023-05-22T07:10:44.704Z,34.23
2023-05-22T07:13:15.041Z,33.97
2023-05-22T07:15:47.524Z,33.71
2023-05-22T07:18:19.450Z,33.45
2023-05-22T07:20:50.732Z,33.12
2023-05-22T07:23:27.051Z,32.67
2023-05-22T07:25:58.420Z,32.36
2023-05-22T07:28:33.234Z,32.06
2023-05-22T07:31:12.986Z,31.81
2023-05-22T07:33:44.206Z,31.49
2023-05-22T07:36:16.851Z,31.34
2023-05-22T07:38:48.149Z,31.33
2023-05-22T07:41:19.515Z,31.24
2023-05-22T07:43:54.158Z,31.06
2023-05-22T07:46:29.565Z,30.87
2023-05-22T07:49:04.779Z,30.74
2023-05-22T07:51:37.631Z,30.58
2023-05-22T07:54:10.235Z,30.45
2023-05-22T07:56:45.903Z,30.25
2023-05-22T07:59:19.874Z,29.92
2023-05-22T08:01:51.463Z,29.57
2023-05-22T08:04:22.572Z,29.16
2023-05-22T08:06:53.696Z,28.84
2023-05-22T08:09:25.351Z,28.63
2023-05-22T08:11:56.596Z,28.54
2023-05-22T08:14:28.136Z,28.44
2023-05-22T08:17:00.443Z,28.47
2023-05-22T08:19:32.204Z,28.49
2023-05-22T08:22:03.373Z,28.36
2023-05-22T08:24:34.407Z,28.13
2023-05-22T08:27:05.479Z,28.02
2023-05-22T08:29:36.820Z,28.03
2023-05-22T08:32:08.859Z,27.88
2023-05-22T08:34:40.567Z,27.71
2023-05-22T08:37:12.529Z,27.62
2023-05-22T08:39:43.633Z,27.51
2023-05-22T08:42:14.815Z,27.48
2023-05-22T08:44:45.855Z,27.46
2023-05-22T08:47:18.905Z,27.43
2023-05-22T08:49:52.244Z,27.51
2023-05-22T08:52:31.139Z,27.55
2023-05-22T08:55:05.136Z,27.49
2023-05-22T08:57:37.164Z,27.33
2023-05-22T09:00:11.632Z,27.11
2023-05-22T09:02:43.454Z,26.86
2023-05-22T09:05:14.889Z,26.59
2023-05-22T09:07:46.297Z,26.35
2023-05-22T09:10:19.770Z,26.15
2023-05-22T09:13:09.470Z,26.05
2023-05-22T09:15:41.288Z,25.96
2023-05-22T09:18:12.654Z,25.91
2023-05-22T09:20:43.759Z,25.85
2023-05-22T09:23:17.965Z,25.73
2023-05-22T09:25:49.238Z,25.61
2023-05-22T09:28:20.718Z,25.50
2023-05-22T09:30:53.165Z,25.40
2023-05-22T09:33:25.835Z,25.32
2023-05-22T09:35:56.990Z,25.21
2023-05-22T09:38:32.218Z,25.08
2023-05-22T09:41:03.625Z,24.98
2023-05-22T09:43:36.542Z,24.89
2023-05-22T09:46:07.644Z,24.79
2023-05-22T09:48:38.979Z,24.73
2023-05-22T09:51:11.705Z,24.74
2023-05-22T09:53:44.686Z,24.81
2023-05-22T09:56:30.731Z,24.92
2023-05-22T09:59:07.487Z,25.03
2023-05-22T10:01:40.161Z,25.12
2023-05-22T10:04:14.466Z,25.24
2023-05-22T10:06:52.573Z,25.34
2023-05-22T10:09:25.248Z,25.40
2023-05-22T10:12:00.073Z,25.46
2023-05-22T10:14:30.985Z,25.52
2023-05-22T10:17:04.933Z,25.49
2023-05-22T10:19:39.700Z,25.39
2023-05-22T10:22:21.104Z,25.24
2023-05-22T10:24:54.142Z,25.11
2023-05-22T10:27:25.442Z,25.01
2023-05-22T10:30:04.039Z,25.03
2023-05-22T10:32:41.935Z,25.09
2023-05-22T10:35:20.670Z,25.15
2023-05-22T10:37:53.579Z,25.20
2023-05-22T10:40:31.837Z,25.24
2023-05-22T10:43:04.900Z,25.24
2023-05-22T10:45:36.814Z,25.23
2023-05-22T10:48:10.017Z,25.29
2023-05-22T10:50:51.263Z,25.38
2023-05-22T10:53:33.139Z,25.44
2023-05-22T10:56:14.207Z,25.48
2023-05-22T10:58:57.013Z,25.52
2023-05-22T11:01:29.580Z,25.53
2023-05-22T11:04:16.089Z,25.49
2023-05-22T11:06:51.500Z,25.44
2023-05-22T11:09:31.030Z,25.46
2023-05-22T11:12:25.873Z,25.41
2023-05-22T11:14:58.869Z,25.30
2023-05-22T11:17:32.086Z,25.21
2023-05-22T11:20:08.537Z,25.16
2023-05-22T11:22:42.127Z,25.12
2023-05-22T11:25:18.037Z,25.05
2023-05-22T11:27:50.144Z,25.07
2023-05-22T11:30:21.595Z,25.14
2023-05-22T11:32:53.046Z,25.22
2023-05-22T11:35:32.310Z,25.18
2023-05-22T11:38:07.425Z,25.16
2023-05-22T11:40:38.847Z,25.15
2023-05-22T11:43:11.090Z,25.18
2023-05-22T11:45:42.389Z,25.18
2023-05-22T11:48:15.599Z,25.15
2023-05-22T11:50:49.449Z,25.09
2023-05-22T11:53:22.474Z,25.03
2023-05-22T11:55:53.672Z,24.96
2023-05-22T11:58:30.453Z,24.91
2023-05-22T12:01:07.946Z,24.82
2023-05-22T12:03:39.498Z,24.72
2023-05-22T12:06:11.189Z,24.73
2023-05-22T12:08:43.999Z,24.82
2023-05-22T12:11:15.674Z,24.88
2023-05-22T12:13:46.739Z,24.94
2023-05-22T12:16:24.152Z,24.94
2023-05-22T12:19:13.181Z,24.93
2023-05-22T12:21:45.052Z,25.00
2023-05-22T12:24:16.147Z,25.08
2023-05-22T12:26:56.795Z,25.18
2023-05-22T12:29:28.989Z,25.25
2023-05-22T12:32:06.433Z,25.30
2023-05-22T12:34:44.561Z,25.28
2023-05-22T12:37:25.112Z,25.25
2023-05-22T12:40:02.269Z,25.23
2023-05-22T12:42:33.630Z,25.22
2023-05-22T12:45:04.889Z,25.21
2023-05-22T12:47:36.273Z,25.17
2023-05-22T12:50:09.506Z,25.15
2023-05-22T12:52:40.882Z,25.13
2023-05-22T12:55:13.554Z,25.11
2023-05-22T12:57:45.864Z,25.07
2023-05-22T13:00:21.283Z,25.02
2023-05-22T13:02:52.453Z,24.93
2023-05-22T13:05:42.058Z,24.87
2023-05-22T13:08:13.382Z,24.81
2023-05-22T13:10:44.511Z,24.75
2023-05-22T13:13:41.791Z,24.66
2023-05-22T13:16:16.023Z,24.55
2023-05-22T13:18:47.361Z,24.40
2023-05-22T13:21:19.091Z,24.31
2023-05-22T13:23:50.123Z,24.23
2023-05-22T13:26:21.334Z,24.15
2023-05-22T13:28:56.425Z,24.06
2023-05-22T13:31:27.813Z,24.00
2023-05-22T13:33:59.896Z,23.98
2023-05-22T13:36:32.879Z,23.96
2023-05-22T13:39:06.081Z,23.92
2023-05-22T13:41:37.255Z,23.90
2023-05-22T13:44:08.380Z,23.90
2023-05-22T13:46:41.049Z,23.93
2023-05-22T13:49:12.363Z,23.97
2023-05-22T13:51:45.342Z,24.01
2023-05-22T13:54:16.768Z,24.03
2023-05-22T13:56:48.136Z,24.02
2023-05-22T13:59:19.301Z,24.01
2023-05-22T14:01:50.597Z,24.02
2023-05-22T14:04:21.734Z,24.04
2023-05-22T14:06:52.809Z,24.00
2023-05-22T14:09:26.309Z,23.94
2023-05-22T14:12:00.272Z,23.86
2023-05-22T14:14:31.489Z,23.78
2023-05-22T14:17:03.293Z,23.77
2023-05-22T14:19:34.836Z,23.75
2023-05-22T14:22:06.479Z,23.73
2023-05-22T14:24:37.586Z,23.71
2023-05-22T14:27:09.056Z,23.68
2023-05-22T14:29:40.154Z,23.68
2023-05-22T14:32:11.311Z,23.69
2023-05-22T14:34:44.988Z,23.66
2023-05-22T14:37:16.304Z,23.63
2023-05-22T14:39:56.681Z,23.60
2023-05-22T14:42:27.658Z,23.59
2023-05-22T14:44:58.903Z,23.58
2023-05-22T14:47:30.353Z,23.53
2023-05-22T14:50:18.359Z,23.49
2023-05-22T14:52:55.978Z,23.41
2023-05-22T14:55:28.395Z,23.33
2023-05-22T14:57:59.410Z,23.28
2023-05-22T15:00:30.477Z,23.23
2023-05-22T15:03:03.046Z,23.17
2023-05-22T15:05:34.258Z,23.11
2023-05-22T15:08:05.360Z,23.06
2023-05-22T15:10:37.713Z,23.04
2023-05-22T15:13:09.082Z,23.01
2023-05-22T15:15:40.394Z,23.01
2023-05-22T15:18:12.387Z,23.01
2023-05-22T15:20:43.654Z,23.04
2023-05-22T15:23:14.868Z,23.10
2023-05-22T15:25:48.294Z,23.13
2023-05-22T15:28:19.372Z,23.12
2023-05-22T15:30:50.428Z,23.11
2023-05-22T15:33:21.784Z,23.10
2023-05-22T15:35:52.982Z,23.10
2023-05-22T15:38:24.216Z,23.05
2023-05-22T15:40:55.424Z,23.00
2023-05-22T15:43:28.324Z,22.97
2023-05-22T15:46:03.705Z,22.94
2023-05-22T15:48:34.951Z,22.87
2023-05-22T15:51:09.651Z,22.82
2023-05-22T15:53:41.714Z,22.80
2023-05-22T15:56:17.888Z,22.78
2023-05-22T15:58:48.913Z,22.74
2023-05-22T16:01:20.030Z,22.70
2023-05-22T16:03:51.759Z,22.66
2023-05-22T16:06:23.456Z,22.62
2023-05-22T16:08:54.809Z,22.59
2023-05-22T16:11:26.369Z,22.56
2023-05-22T16:14:25.743Z,22.57
2023-05-22T16:16:56.812Z,22.58
2023-05-22T16:19:28.268Z,22.57
2023-05-22T16:21:59.329Z,22.57
2023-05-22T16:24:31.165Z,22.56
2023-05-22T16:27:47.202Z,22.54
2023-05-22T16:30:19.644Z,22.51
2023-05-22T16:32:51.413Z,22.50
2023-05-22T16:35:22.569Z,22.49
2023-05-22T16:37:54.076Z,22.46
2023-05-22T16:40:25.661Z,22.44
2023-05-22T16:42:59.023Z,22.42
2023-05-22T16:45:30.252Z,22.38
2023-05-22T16:48:01.622Z,22.34
2023-05-22T16:50:34.040Z,22.32
2023-05-22T16:53:07.834Z,22.30
2023-05-22T16:55:41.256Z,22.28
2023-05-22T16:58:13.589Z,22.24
2023-05-22T17:00:44.909Z,22.20
2023-05-22T17:03:23.954Z,22.16
2023-05-22T17:05:57.128Z,22.13
2023-05-22T17:08:28.685Z,22.08
2023-05-22T17:11:00.026Z,22.03
2023-05-22T17:13:34.392Z,21.99
2023-05-22T17:16:07.308Z,21.96
2023-05-22T17:18:39.669Z,21.93
2023-05-22T17:21:11.429Z,21.90
2023-05-22T17:23:43.257Z,21.87
2023-05-22T17:26:14.729Z,21.83
2023-05-22T17:28:45.827Z,21.79
2023-05-22T17:31:18.667Z,21.75
2023-05-22T17:33:50.841Z,21.69
2023-05-22T17:36:25.176Z,21.65
2023-05-22T17:42:06.511Z,21.55
2023-05-22T17:44:43.449Z,21.50
2023-05-22T17:47:20.718Z,21.45
2023-05-22T17:49:51.690Z,21.40
2023-05-22T17:52:23.246Z,21.36
2023-05-22T17:54:56.036Z,21.32
2023-05-22T17:57:33.644Z,21.26
2023-05-22T18:00:10.299Z,21.21
2023-05-22T18:02:53.508Z,21.18
2023-05-22T18:05:31.749Z,21.16
2023-05-22T18:08:06.037Z,21.11
2023-05-22T18:13:48.810Z,21.00
2023-05-22T18:16:28.320Z,20.93
2023-05-22T18:19:02.239Z,20.87
2023-05-22T18:21:38.514Z,20.83
2023-05-22T18:27:48.656Z,20.72
2023-05-22T18:30:20.195Z,20.66
2023-05-22T18:32:53.109Z,20.60
2023-05-22T18:35:24.428Z,20.54
2023-05-22T18:37:55.529Z,20.47
2023-05-22T18:40:26.873Z,20.40
2023-05-22T18:42:57.909Z,20.33
2023-05-22T18:45:28.947Z,20.27
2023-05-22T18:48:02.236Z,20.21
2023-05-22T18:50:33.868Z,20.14
2023-05-22T18:53:07.920Z,20.08
2023-05-22T19:00:15.506Z,19.92
2023-05-22T19:02:51.791Z,19.86
2023-05-22T19:05:41.616Z,19.80
2023-05-22T19:08:23.205Z,19.74
2023-05-22T19:11:09.106Z,19.68
2023-05-22T19:17:52.690Z,19.53
2023-05-22T19:20:26.265Z,19.47
2023-05-22T19:22:57.490Z,19.40
2023-05-22T19:25:28.923Z,19.35
2023-05-22T19:28:02.984Z,19.31
2023-05-22T19:30:34.185Z,19.24
2023-05-22T19:33:08.710Z,19.19
2023-05-22T19:35:39.081Z,19.13
2023-05-22T19:38:54.885Z,19.07
2023-05-22T19:41:26.926Z,18.99
2023-05-22T19:44:04.634Z,18.92
2023-05-22T19:46:39.074Z,18.85
2023-05-22T19:49:10.462Z,18.77
2023-05-22T19:51:42.076Z,18.71
2023-05-22T19:54:13.211Z,18.66
2023-05-22T19:56:51.810Z,18.60
2023-05-22T19:59:23.997Z,18.55
2023-05-22T20:01:55.169Z,18.50
2023-05-22T20:04:26.189Z,18.45
2023-05-22T20:06:58.924Z,18.39
2023-05-22T20:09:31.032Z,18.33
2023-05-22T20:12:02.272Z,18.27
2023-05-22T20:14:34.188Z,18.20
2023-05-22T20:17:05.694Z,18.13
2023-05-22T20:19:38.130Z,18.07
2023-05-22T20:22:09.512Z,18.01
2023-05-22T20:24:40.629Z,17.95
2023-05-22T20:27:12.093Z,17.88
2023-05-22T20:29:43.363Z,17.82
2023-05-22T20:32:15.192Z,17.77
2023-05-22T20:34:50.236Z,17.69
2023-05-22T20:37:21.080Z,17.65
2023-05-22T20:39:52.662Z,17.58
2023-05-22T20:42:25.660Z,17.52
2023-05-22T20:44:56.600Z,17.46
2023-05-22T20:47:28.476Z,17.41
2023-05-22T20:49:59.759Z,17.36
2023-05-22T20:52:31.168Z,17.31
2023-05-22T20:55:02.261Z,17.25
2023-05-22T20:57:33.370Z,17.20
2023-05-22T21:00:07.355Z,17.15
2023-05-22T21:02:39.137Z,17.09
2023-05-22T21:05:12.305Z,17.04
2023-05-22T21:07:45.186Z,17.00
2023-05-22T21:10:16.388Z,16.96
2023-05-22T21:12:47.594Z,16.91
2023-05-22T21:15:18.985Z,16.88
2023-05-22T21:17:50.583Z,16.84
2023-05-22T21:20:22.069Z,16.79
2023-05-22T21:22:53.410Z,16.73
2023-05-22T21:25:24.570Z,16.68
2023-05-22T21:27:55.857Z,16.64
2023-05-22T21:30:26.819Z,16.61
2023-05-22T21:32:57.965Z,16.58
2023-05-22T21:35:29.247Z,16.54
2023-05-22T21:38:00.487Z,16.52
2023-05-22T21:40:32.994Z,16.50
2023-05-22T21:43:04.304Z,16.47
2023-05-22T21:45:36.305Z,16.43
2023-05-22T21:48:07.887Z,16.40
2023-05-22T21:50:38.994Z,16.36
2023-05-22T21:53:10.121Z,16.32
2023-05-22T21:55:41.072Z,16.27
2023-05-22T21:58:12.602Z,16.22
2023-05-22T22:00:43.599Z,16.18
2023-05-22T22:03:14.756Z,16.14
2023-05-22T22:05:45.741Z,16.12
2023-05-22T22:08:19.193Z,16.08
2023-05-22T22:10:50.118Z,16.04
2023-05-22T22:13:21.123Z,15.98
2023-05-22T22:15:53.629Z,15.95
2023-05-22T22:18:24.577Z,15.90
2023-05-22T22:20:56.038Z,15.86
2023-05-22T22:23:27.168Z,15.81
2023-05-22T22:25:58.166Z,15.78
2023-05-22T22:28:29.228Z,15.73
2023-05-22T22:31:01.534Z,15.69
2023-05-22T22:33:32.975Z,15.65
2023-05-22T22:36:03.926Z,15.60
2023-05-22T22:38:35.493Z,15.56
2023-05-22T22:41:08.745Z,15.50
2023-05-22T22:43:39.765Z,15.47
2023-05-22T22:46:12.331Z,15.42
2023-05-22T22:48:43.962Z,15.38
2023-05-22T22:51:17.035Z,15.35
2023-05-22T22:53:48.342Z,15.33
2023-05-22T22:56:19.998Z,15.31
2023-05-22T22:58:51.909Z,15.28
2023-05-22T23:01:23.122Z,15.24
2023-05-22T23:03:54.932Z,15.19
2023-05-22T23:06:29.833Z,15.16
2023-05-22T23:09:43.400Z,15.12
2023-05-22T23:12:14.366Z,15.08
2023-05-22T23:14:45.798Z,15.03
2023-05-22T23:17:16.808Z,15.00
2023-05-22T23:19:48.007Z,14.96
2023-05-22T23:22:19.110Z,14.93
2023-05-22T23:24:50.128Z,14.89
2023-05-22T23:27:21.988Z,14.88
2023-05-22T23:29:53.134Z,14.87
2023-05-22T23:32:24.611Z,14.85
2023-05-22T23:34:56.001Z,14.84
2023-05-22T23:37:27.026Z,14.83
2023-05-22T23:39:58.503Z,14.82
2023-05-22T23:42:29.556Z,14.80
2023-05-22T23:45:01.789Z,14.79
2023-05-22T23:47:32.957Z,14.78
2023-05-22T23:50:03.961Z,14.76
2023-05-22T23:52:35.007Z,14.74
2023-05-22T23:55:06.967Z,14.73
2023-05-22T23:57:38.028Z,14.71
